createdAt,value
2019-03-06T00:00:48.361Z,3.90
2019-03-06T00:10:54.749Z,3.95
2019-03-06T00:20:59.650Z,3.62
2019-03-06T00:31:05.278Z,3.73
2019-03-06T00:41:11.645Z,3.59
2019-03-06T00:51:16.475Z,3.63
2019-03-06T01:01:21.329Z,3.77
2019-03-06T01:11:26.140Z,3.90
2019-03-06T01:21:30.964Z,3.84
2019-03-06T01:31:35.789Z,3.94
2019-03-06T01:41:42.149Z,3.93
2019-03-06T01:51:46.954Z,4.02
2019-03-06T02:01:51.809Z,3.89
2019-03-06T02:11:57.615Z,3.56
2019-03-06T02:22:02.425Z,3.28
2019-03-06T02:32:07.360Z,3.25
2019-03-06T02:42:12.161Z,3.28
2019-03-06T02:52:16.981Z,3.13
2019-03-06T03:02:23.342Z,2.91
2019-03-06T03:12:28.168Z,2.82
2019-03-06T03:22:32.976Z,2.57
2019-03-06T03:32:37.809Z,2.42
2019-03-06T03:42:42.651Z,2.55
2019-03-06T03:52:47.481Z,2.41
2019-03-06T04:02:52.285Z,2.28
2019-03-06T04:12:57.121Z,1.90
2019-03-06T04:23:01.922Z,2.09
2019-03-06T04:33:06.736Z,1.93
2019-03-06T04:43:11.564Z,1.93
2019-03-06T04:53:16.410Z,1.76
2019-03-06T05:03:22.215Z,1.58
2019-03-06T05:13:27.136Z,1.68
2019-03-06T05:23:31.958Z,1.74
2019-03-06T05:33:36.761Z,1.63
2019-03-06T05:43:41.559Z,1.63
2019-03-06T05:53:46.390Z,1.75
2019-03-06T06:03:51.209Z,2.23
2019-03-06T06:13:56.043Z,2.42
2019-03-06T06:24:02.426Z,2.89
2019-03-06T06:34:08.236Z,3.04
2019-03-06T06:44:13.028Z,4.23
2019-03-06T06:54:21.024Z,5.45
2019-03-06T07:05:06.449Z,6.94
2019-03-06T07:15:30.910Z,8.38
2019-03-06T07:25:37.291Z,9.29
2019-03-06T07:36:06.647Z,10.36
2019-03-06T07:46:18.745Z,11.26
2019-03-06T07:56:28.092Z,12.36
2019-03-06T08:06:32.904Z,13.26
2019-03-06T08:16:39.288Z,14.45
2019-03-06T08:26:44.098Z,14.50
2019-03-06T08:36:48.921Z,13.28
2019-03-06T08:46:58.260Z,12.48
2019-03-06T08:57:22.724Z,14.38
2019-03-06T09:07:45.051Z,13.91
2019-03-06T09:17:51.434Z,12.96
2019-03-06T09:28:00.491Z,12.11
2019-03-06T09:38:21.907Z,11.08
2019-03-06T09:48:33.264Z,11.32
2019-03-06T09:58:48.285Z,13.61
2019-03-06T10:09:09.975Z,12.16
2019-03-06T10:19:17.252Z,17.36
2019-03-06T10:29:22.174Z,13.12
2019-03-06T10:39:27.092Z,13.42
2019-03-06T10:49:31.904Z,10.31
2019-03-06T10:59:36.805Z,11.92
2019-03-06T11:09:41.733Z,12.56
2019-03-06T11:19:46.625Z,14.70
2019-03-06T11:29:51.417Z,11.78
2019-03-06T11:39:56.250Z,14.90
2019-03-06T11:50:01.063Z,16.85
2019-03-06T12:00:13.054Z,14.64
2019-03-06T12:10:19.411Z,15.25
2019-03-06T12:20:24.215Z,14.79
2019-03-06T12:30:29.045Z,12.52
2019-03-06T12:40:34.668Z,15.48
2019-03-06T12:50:40.580Z,11.75
2019-03-06T13:00:45.394Z,13.40
2019-03-06T13:10:50.229Z,12.15
2019-03-06T13:20:55.066Z,11.16
2019-03-06T13:30:59.874Z,11.75
2019-03-06T13:41:05.285Z,11.74
2019-03-06T13:51:10.233Z,10.87
2019-03-06T14:01:15.570Z,10.19
2019-03-06T14:11:20.610Z,10.87
2019-03-06T14:21:25.540Z,10.97
2019-03-06T14:31:30.742Z,10.71
2019-03-06T14:41:35.573Z,10.86
2019-03-06T14:51:40.411Z,10.82
2019-03-06T15:01:45.432Z,10.90
2019-03-06T15:11:50.259Z,10.81
2019-03-06T15:21:55.205Z,10.63
2019-03-06T15:32:00.946Z,10.30
2019-03-06T15:42:07.171Z,10.15
2019-03-06T15:52:12.568Z,10.05
2019-03-06T16:02:17.621Z,9.71
2019-03-06T16:12:22.999Z,9.42
2019-03-06T16:22:28.218Z,9.06
2019-03-06T16:32:33.186Z,8.86
2019-03-06T16:42:38.160Z,8.51
2019-03-06T16:52:43.603Z,8.08
2019-03-06T17:02:48.756Z,7.96
2019-03-06T17:12:54.258Z,7.71
2019-03-06T17:22:59.888Z,7.44
2019-03-06T17:33:12.346Z,7.19
2019-03-06T17:43:17.525Z,6.89
2019-03-06T17:53:22.889Z,6.78
2019-03-06T18:03:35.145Z,6.66
2019-03-06T18:13:40.271Z,6.48
2019-03-06T18:23:45.549Z,6.57
2019-03-06T18:33:50.595Z,6.42
2019-03-06T18:43:55.660Z,6.28
2019-03-06T18:54:02.047Z,6.08
2019-03-06T19:04:07.132Z,6.09
2019-03-06T19:14:12.252Z,6.13
2019-03-06T19:24:18.006Z,6.01
2019-03-06T19:34:23.231Z,6.00
2019-03-06T19:44:28.327Z,5.98
2019-03-06T19:54:33.408Z,5.95
2019-03-06T20:04:40.108Z,5.94
2019-03-06T20:14:45.430Z,5.87
2019-03-06T20:24:50.805Z,6.00
2019-03-06T20:34:56.988Z,5.94
2019-03-06T20:45:02.030Z,6.00
2019-03-06T20:55:08.509Z,6.12
2019-03-06T21:05:13.718Z,6.20
2019-03-06T21:15:19.940Z,6.34
2019-03-06T21:25:25.194Z,6.19
2019-03-06T21:35:30.420Z,6.42
2019-03-06T21:45:35.454Z,6.31
2019-03-06T21:55:40.579Z,6.39
2019-03-06T22:05:45.437Z,6.22
2019-03-06T22:15:50.288Z,6.12
2019-03-06T22:25:55.151Z,5.99
2019-03-06T22:36:00.023Z,5.98
2019-03-06T22:46:05.194Z,5.89
2019-03-06T22:56:10.087Z,5.86
2019-03-06T23:06:14.939Z,5.72
2019-03-06T23:16:19.811Z,5.58
2019-03-06T23:26:24.672Z,5.58
2019-03-06T23:36:29.614Z,5.48
2019-03-06T23:46:34.525Z,5.49
2019-03-06T23:56:39.462Z,5.56
